createdAt,value
2023-05-19T00:01:26.559Z,98118.53
2023-05-19T00:03:57.681Z,98114.72
2023-05-19T00:06:27.558Z,98115.22
2023-05-19T00:09:05.003Z,98115.94
2023-05-19T00:11:33.821Z,98112.78
2023-05-19T00:14:02.357Z,98112.13
2023-05-19T00:16:31.503Z,98101.41
2023-05-19T00:19:01.947Z,98105.75
2023-05-19T00:21:31.179Z,98109.59
2023-05-19T00:23:59.144Z,98110.81
2023-05-19T00:26:27.388Z,98103.31
2023-05-19T00:29:00.888Z,98101.41
2023-05-19T00:31:28.909Z,98103.78
2023-05-19T00:33:56.476Z,98100.16
2023-05-19T00:36:24.905Z,98108.34
2023-05-19T00:38:52.606Z,98095.50
2023-05-19T00:41:20.986Z,98093.81
2023-05-19T00:43:49.149Z,98086.97
2023-05-19T00:46:16.760Z,98098.41
2023-05-19T00:48:45.483Z,98096.94
2023-05-19T00:51:16.642Z,98097.78
2023-05-19T00:53:48.914Z,98098.44
2023-05-19T00:56:17.283Z,98091.25
2023-05-19T00:58:45.504Z,98094.75
2023-05-19T01:01:14.515Z,98091.53
2023-05-19T01:03:43.829Z,98090.53
2023-05-19T01:06:12.145Z,98090.53
2023-05-19T01:08:40.170Z,98088.03
2023-05-19T01:11:08.570Z,98091.03
2023-05-19T01:13:36.843Z,98089.22
2023-05-19T01:16:35.212Z,98090.59
2023-05-19T01:19:33.534Z,98090.06
2023-05-19T01:22:42.840Z,98087.72
2023-05-19T01:25:19.859Z,98098.28
2023-05-19T01:28:21.039Z,98092.25
2023-05-19T01:30:53.295Z,98097.44
2023-05-19T01:33:23.152Z,98094.94
2023-05-19T01:35:51.751Z,98084.22
2023-05-19T01:38:20.836Z,98089.41
2023-05-19T01:40:50.412Z,98085.88
2023-05-19T01:43:23.804Z,98083.19
2023-05-19T01:45:52.157Z,98083.56
2023-05-19T01:48:20.759Z,98083.56
2023-05-19T01:50:48.445Z,98088.09
2023-05-19T01:53:16.505Z,98089.25
2023-05-19T01:55:50.768Z,98090.28
2023-05-19T01:58:50.128Z,98093.13
2023-05-19T02:01:44.730Z,98086.09
2023-05-19T02:04:43.617Z,98089.97
2023-05-19T02:07:43.492Z,98090.63
2023-05-19T02:10:30.969Z,98086.47
2023-05-19T02:13:04.197Z,98087.47
2023-05-19T02:15:42.183Z,98093.00
2023-05-19T02:18:11.784Z,98094.00
2023-05-19T02:20:40.672Z,98088.81
2023-05-19T02:23:08.861Z,98090.00
2023-05-19T02:25:36.377Z,98078.63
2023-05-19T02:28:04.114Z,98097.22
2023-05-19T02:30:32.818Z,98094.72
2023-05-19T02:33:01.294Z,98102.38
2023-05-19T02:35:29.021Z,98105.91
2023-05-19T02:37:57.241Z,98099.69
2023-05-19T02:40:24.753Z,98098.03
2023-05-19T02:42:52.298Z,98091.31
2023-05-19T02:45:19.915Z,98089.31
2023-05-19T02:47:47.515Z,98086.28
2023-05-19T02:50:15.275Z,98083.78
2023-05-19T02:52:42.852Z,98082.09
2023-05-19T02:55:10.756Z,98079.41
2023-05-19T02:57:38.296Z,98077.41
2023-05-19T03:00:07.915Z,98075.56
2023-05-19T03:02:35.536Z,98070.38
2023-05-19T03:05:03.811Z,98078.59
2023-05-19T03:07:33.626Z,98082.47
2023-05-19T03:10:03.957Z,98074.94
2023-05-19T03:12:32.432Z,98074.44
2023-05-19T03:15:01.002Z,98074.97
2023-05-19T03:17:33.581Z,98070.97
2023-05-19T03:20:01.747Z,98078.19
2023-05-19T03:22:29.264Z,98070.00
2023-05-19T03:24:58.388Z,98068.13
2023-05-19T03:27:25.963Z,98066.47
2023-05-19T03:29:53.965Z,98067.31
2023-05-19T03:32:22.272Z,98071.47
2023-05-19T03:34:49.906Z,98072.47
2023-05-19T03:37:17.610Z,98065.63
2023-05-19T03:39:46.057Z,98070.81
2023-05-19T03:42:13.673Z,98070.97
2023-05-19T03:44:41.346Z,98068.31
2023-05-19T03:47:09.188Z,98070.16
2023-05-19T03:49:55.180Z,98072.34
2023-05-19T03:53:01.438Z,98082.41
2023-05-19T03:55:32.412Z,98078.19
2023-05-19T03:57:59.994Z,98076.06
2023-05-19T04:00:27.574Z,98079.09
2023-05-19T04:02:55.713Z,98080.41
2023-05-19T04:05:23.338Z,98080.78
2023-05-19T04:07:51.013Z,98081.94
2023-05-19T04:10:19.756Z,98088.31
2023-05-19T04:12:48.070Z,98097.31
2023-05-19T04:15:16.886Z,98093.81
2023-05-19T04:17:44.672Z,98088.63
2023-05-19T04:20:13.507Z,98092.16
2023-05-19T04:22:41.427Z,98091.16
2023-05-19T04:25:09.479Z,98099.00
2023-05-19T04:27:38.824Z,98096.50
2023-05-19T04:30:08.077Z,98091.31
2023-05-19T04:32:37.410Z,98095.69
2023-05-19T04:35:06.837Z,98095.50
2023-05-19T04:37:37.362Z,98092.16
2023-05-19T04:40:09.934Z,98098.34
2023-05-19T04:42:41.188Z,98097.31
2023-05-19T04:45:09.912Z,98098.34
2023-05-19T04:47:41.858Z,98101.69
2023-05-19T04:50:11.133Z,98100.88
2023-05-19T04:52:38.812Z,98099.19
2023-05-19T04:55:07.606Z,98101.69
2023-05-19T04:57:35.898Z,98093.50
2023-05-19T05:00:07.904Z,98097.66
2023-05-19T05:02:47.057Z,98097.81
2023-05-19T05:05:21.038Z,98101.31
2023-05-19T05:07:49.448Z,98103.66
2023-05-19T05:10:17.105Z,98099.44
2023-05-19T05:12:45.056Z,98103.91
2023-05-19T05:15:13.162Z,98104.06
2023-05-19T05:17:41.154Z,98099.03
2023-05-19T05:20:11.711Z,98097.66
2023-05-19T05:22:39.914Z,98094.94
2023-05-19T05:25:10.176Z,98094.25
2023-05-19T05:27:38.482Z,98103.13
2023-05-19T05:30:08.583Z,98098.44
2023-05-19T05:32:36.346Z,98101.59
2023-05-19T05:35:09.893Z,98101.09
2023-05-19T05:37:37.751Z,98098.19
2023-05-19T05:40:07.044Z,98101.91
2023-05-19T05:42:35.500Z,98103.56
2023-05-19T05:45:04.596Z,98093.72
2023-05-19T05:47:32.961Z,98104.72
2023-05-19T05:50:01.243Z,98103.72
2023-05-19T05:52:31.069Z,98101.53
2023-05-19T05:55:01.417Z,98107.81
2023-05-19T05:57:35.338Z,98107.66
2023-05-19T06:00:10.023Z,98108.31
2023-05-19T06:02:47.309Z,98105.63
2023-05-19T06:05:17.024Z,98106.09
2023-05-19T06:07:46.713Z,98106.00
2023-05-19T06:10:19.885Z,98102.47
2023-05-19T06:12:48.325Z,98105.81
2023-05-19T06:15:16.562Z,98111.34
2023-05-19T06:18:04.343Z,98100.56
2023-05-19T06:20:32.197Z,98105.94
2023-05-19T06:23:01.318Z,98095.94
2023-05-19T06:25:30.358Z,98105.09
2023-05-19T06:27:59.288Z,98100.22
2023-05-19T06:30:27.022Z,98103.66
2023-05-19T06:33:09.065Z,98096.88
2023-05-19T06:35:36.817Z,98103.50
2023-05-19T06:38:04.466Z,98105.63
2023-05-19T06:40:33.639Z,98107.53
2023-05-19T06:43:01.536Z,98097.19
2023-05-19T06:45:47.353Z,98104.44
2023-05-19T06:48:14.979Z,98097.34
2023-05-19T06:50:42.781Z,98099.75
2023-05-19T06:53:11.053Z,98102.16
2023-05-19T06:55:47.205Z,98101.50
2023-05-19T06:58:27.092Z,98094.25
2023-05-19T07:00:55.244Z,98101.97
2023-05-19T07:03:26.001Z,98095.84
2023-05-19T07:05:55.892Z,98098.41
2023-05-19T07:08:23.792Z,98092.94
2023-05-19T07:10:51.423Z,98094.41
2023-05-19T07:13:19.042Z,98095.44
2023-05-19T07:15:48.884Z,98095.34
2023-05-19T07:18:18.456Z,98092.63
2023-05-19T07:20:47.184Z,98094.19
2023-05-19T07:23:16.710Z,98091.53
2023-05-19T07:25:46.729Z,98092.84
2023-05-19T07:28:14.328Z,98090.47
2023-05-19T07:30:41.980Z,98089.84
2023-05-19T07:33:09.549Z,98083.59
2023-05-19T07:35:37.229Z,98089.75
2023-05-19T07:38:04.805Z,98078.28
2023-05-19T07:40:32.777Z,98080.84
2023-05-19T07:43:00.473Z,98087.28
2023-05-19T07:45:28.016Z,98085.44
2023-05-19T07:47:55.919Z,98079.28
2023-05-19T07:50:23.618Z,98078.44
2023-05-19T07:52:51.514Z,98081.97
2023-05-19T07:55:19.162Z,98076.53
2023-05-19T07:57:46.793Z,98069.69
2023-05-19T08:00:15.058Z,98067.66
2023-05-19T08:02:43.734Z,98075.03
2023-05-19T08:05:11.565Z,98073.63
2023-05-19T08:07:39.236Z,98066.88
2023-05-19T08:10:07.469Z,98068.25
2023-05-19T08:12:35.115Z,98047.91
2023-05-19T08:15:02.660Z,98066.31
2023-05-19T08:17:30.278Z,98055.28
2023-05-19T08:19:58.030Z,98058.22
2023-05-19T08:22:25.827Z,98063.25
2023-05-19T08:24:53.383Z,98051.44
2023-05-19T08:27:20.973Z,98049.22
2023-05-19T08:29:48.534Z,98048.84
2023-05-19T08:32:16.311Z,98048.03
2023-05-19T08:34:43.905Z,98044.78
2023-05-19T08:37:11.891Z,98043.81
2023-05-19T08:39:39.618Z,98049.41
2023-05-19T08:42:09.664Z,98042.81
2023-05-19T08:44:39.893Z,98037.88
2023-05-19T08:47:12.784Z,98047.03
2023-05-19T08:49:48.094Z,98045.84
2023-05-19T08:52:31.083Z,98043.59
2023-05-19T08:55:13.000Z,98046.97
2023-05-19T08:57:41.521Z,98043.25
2023-05-19T09:00:12.167Z,98048.66
2023-05-19T09:02:50.480Z,98042.88
2023-05-19T09:05:28.128Z,98043.06
2023-05-19T09:07:57.071Z,98036.63
2023-05-19T09:10:25.288Z,98044.53
2023-05-19T09:12:53.849Z,98039.31
2023-05-19T09:15:25.821Z,98043.31
2023-05-19T09:18:07.764Z,98040.41
2023-05-19T09:20:41.810Z,98044.34
2023-05-19T09:23:17.498Z,98037.47
2023-05-19T09:25:50.152Z,98036.03
2023-05-19T09:28:33.262Z,98039.34
2023-05-19T09:31:08.920Z,98037.47
2023-05-19T09:33:39.153Z,98046.41
2023-05-19T09:36:08.584Z,98040.19
2023-05-19T09:38:37.640Z,98032.47
2023-05-19T09:41:09.293Z,98037.47
2023-05-19T09:43:36.908Z,98045.19
2023-05-19T09:46:13.619Z,98040.78
2023-05-19T09:48:42.383Z,98032.50
2023-05-19T09:51:10.724Z,98034.56
2023-05-19T09:53:38.975Z,98034.78
2023-05-19T09:56:09.933Z,98032.50
2023-05-19T09:58:38.060Z,98032.91
2023-05-19T10:01:06.296Z,98032.28
2023-05-19T10:03:34.479Z,98026.25
2023-05-19T10:06:03.838Z,98030.41
2023-05-19T10:08:33.418Z,98029.16
2023-05-19T10:11:01.615Z,98032.69
2023-05-19T10:13:30.659Z,98019.59
2023-05-19T10:16:00.047Z,98025.41
2023-05-19T10:18:29.436Z,98027.69
2023-05-19T10:20:58.623Z,98025.00
2023-05-19T10:23:26.830Z,98025.19
2023-05-19T10:25:59.398Z,98029.16
2023-05-19T10:28:36.833Z,98021.03
2023-05-19T10:31:09.676Z,98019.81
2023-05-19T10:34:04.921Z,98011.25
2023-05-19T10:37:13.654Z,98010.66
2023-05-19T10:39:43.450Z,98013.34
2023-05-19T10:42:26.355Z,98015.19
2023-05-19T10:45:31.784Z,98016.03
2023-05-19T10:47:59.631Z,98019.50
2023-05-19T10:50:27.302Z,98016.59
2023-05-19T10:52:56.558Z,98014.09
2023-05-19T10:56:06.929Z,98011.34
2023-05-19T10:58:43.646Z,98011.81
2023-05-19T11:01:16.472Z,98017.00
2023-05-19T11:03:53.495Z,98006.41
2023-05-19T11:06:29.897Z,98001.16
2023-05-19T11:09:03.822Z,98003.44
2023-05-19T11:11:51.286Z,98010.03
2023-05-19T11:14:25.514Z,98011.44
2023-05-19T11:17:00.650Z,98007.31
2023-05-19T11:19:33.056Z,98010.22
2023-05-19T11:22:12.894Z,98021.72
2023-05-19T11:24:45.807Z,98011.31
2023-05-19T11:27:32.463Z,98012.72
2023-05-19T11:30:09.493Z,98011.91
2023-05-19T11:32:42.449Z,98010.75
2023-05-19T11:35:11.160Z,98003.06
2023-05-19T11:37:41.448Z,98000.75
2023-05-19T11:40:09.504Z,98002.84
2023-05-19T11:42:37.301Z,98004.94
2023-05-19T11:45:06.396Z,98007.88
2023-05-19T11:47:42.493Z,97995.63
2023-05-19T11:50:15.008Z,97999.97
2023-05-19T11:52:47.392Z,98005.00
2023-05-19T11:55:22.216Z,98000.00
2023-05-19T11:58:03.847Z,97993.16
2023-05-19T12:00:39.317Z,97995.81
2023-05-19T12:03:08.990Z,97992.28
2023-05-19T12:05:43.502Z,97995.19
2023-05-19T12:08:12.492Z,97986.22
2023-05-19T12:10:40.885Z,97993.50
2023-05-19T12:13:09.579Z,97990.75
2023-05-19T12:15:38.707Z,97986.34
2023-05-19T12:18:07.178Z,97994.66
2023-05-19T12:20:38.048Z,98001.38
2023-05-19T12:23:05.879Z,97994.34
2023-05-19T12:25:34.100Z,97999.97
2023-05-19T12:28:05.099Z,97992.72
2023-05-19T12:30:34.777Z,97997.75
2023-05-19T12:33:03.528Z,97993.59
2023-05-19T12:35:33.770Z,98006.09
2023-05-19T12:38:06.465Z,98009.63
2023-05-19T12:40:42.286Z,98012.56
2023-05-19T12:43:22.991Z,98010.47
2023-05-19T12:45:50.879Z,98005.72
2023-05-19T12:48:22.571Z,98009.03
2023-05-19T12:50:54.106Z,98009.47
2023-05-19T12:53:21.705Z,98008.19
2023-05-19T12:55:52.823Z,98004.88
2023-05-19T12:58:21.453Z,98000.09
2023-05-19T13:00:49.830Z,98003.41
2023-05-19T13:03:19.670Z,98005.94
2023-05-19T13:05:50.365Z,97994.28
2023-05-19T13:08:20.519Z,97997.00
2023-05-19T13:10:49.602Z,98006.13
2023-05-19T13:13:17.592Z,98009.66
2023-05-19T13:15:48.745Z,98000.75
2023-05-19T13:18:17.305Z,98006.75
2023-05-19T13:20:46.669Z,97998.03
2023-05-19T13:23:14.768Z,97995.97
2023-05-19T13:25:42.849Z,97996.38
2023-05-19T13:28:10.790Z,97987.44
2023-05-19T13:30:40.709Z,97986.63
2023-05-19T13:33:08.333Z,97981.63
2023-05-19T13:35:38.877Z,97981.44
2023-05-19T13:38:10.288Z,97980.59
2023-05-19T13:40:39.553Z,97977.06
2023-05-19T13:43:08.451Z,97988.69
2023-05-19T13:45:36.474Z,97982.28
2023-05-19T13:48:04.374Z,97981.22
2023-05-19T13:50:32.058Z,97984.72
2023-05-19T13:52:59.756Z,97983.72
2023-05-19T13:55:27.518Z,97981.22
2023-05-19T13:57:55.158Z,97981.00
2023-05-19T14:00:23.058Z,97978.13
2023-05-19T14:02:50.762Z,97970.63
2023-05-19T14:05:18.581Z,97968.78
2023-05-19T14:07:46.558Z,97974.34
2023-05-19T14:10:14.184Z,97966.88
2023-05-19T14:12:59.550Z,97965.25
2023-05-19T14:15:29.275Z,97962.34
2023-05-19T14:17:57.015Z,97957.97
2023-05-19T14:20:25.514Z,97962.13
2023-05-19T14:22:55.438Z,97965.03
2023-05-19T14:25:22.964Z,97953.00
2023-05-19T14:27:50.599Z,97954.25
2023-05-19T14:30:18.149Z,97959.03
2023-05-19T14:32:45.786Z,97959.66
2023-05-19T14:35:13.343Z,97964.00
2023-05-19T14:37:40.956Z,97953.41
2023-05-19T14:40:09.165Z,97953.81
2023-05-19T14:42:36.721Z,97950.09
2023-05-19T14:45:04.604Z,97959.84
2023-05-19T14:47:32.224Z,97951.97
2023-05-19T14:49:59.782Z,97948.63
2023-05-19T14:52:27.392Z,97953.81
2023-05-19T14:54:55.996Z,97950.47
2023-05-19T14:57:23.543Z,97958.16
2023-05-19T14:59:51.121Z,97955.06
2023-05-19T15:02:18.801Z,97952.38
2023-05-19T15:04:46.528Z,97956.31
2023-05-19T15:07:14.110Z,97948.66
2023-05-19T15:09:41.687Z,97948.22
2023-05-19T15:12:09.289Z,97946.34
2023-05-19T15:14:36.831Z,97946.94
2023-05-19T15:17:04.588Z,97950.88
2023-05-19T15:19:32.258Z,97938.00
2023-05-19T15:21:59.864Z,97937.81
2023-05-19T15:24:27.741Z,97934.91
2023-05-19T15:26:55.915Z,97936.13
2023-05-19T15:29:23.462Z,97934.25
2023-05-19T15:31:51.774Z,97936.97
2023-05-19T15:34:20.775Z,97933.44
2023-05-19T15:36:48.449Z,97930.94
2023-05-19T15:39:16.100Z,97931.34
2023-05-19T15:41:43.692Z,97930.91
2023-05-19T15:44:11.253Z,97929.44
2023-05-19T15:46:38.861Z,97933.19
2023-05-19T15:49:06.547Z,97932.31
2023-05-19T15:51:34.735Z,97920.09
2023-05-19T15:54:02.366Z,97920.72
2023-05-19T15:56:29.965Z,97915.94
2023-05-19T15:58:57.475Z,97913.63
2023-05-19T16:01:25.583Z,97910.69
2023-05-19T16:03:53.403Z,97911.94
2023-05-19T16:06:21.196Z,97910.66
2023-05-19T16:08:48.764Z,97910.22
2023-05-19T16:11:16.362Z,97901.06
2023-05-19T16:13:43.910Z,97898.16
2023-05-19T16:16:11.521Z,97893.75
2023-05-19T16:18:39.263Z,97892.47
2023-05-19T16:21:06.927Z,97884.75
2023-05-19T16:23:34.524Z,97878.91
2023-05-19T16:26:02.104Z,97883.41
2023-05-19T16:28:29.741Z,97878.75
2023-05-19T16:30:59.512Z,97875.38
2023-05-19T16:33:28.219Z,97875.38
2023-05-19T16:35:57.317Z,97873.66
2023-05-19T16:38:25.043Z,97874.69
2023-05-19T16:40:52.738Z,97871.16
2023-05-19T16:43:20.444Z,97872.28
2023-05-19T16:45:48.036Z,97874.38
2023-05-19T16:48:15.662Z,97871.72
2023-05-19T16:50:43.312Z,97874.25
2023-05-19T16:53:10.903Z,97872.19
2023-05-19T16:55:38.508Z,97868.28
2023-05-19T16:58:06.168Z,97869.56
2023-05-19T17:00:33.904Z,97866.06
2023-05-19T17:03:01.699Z,97858.94
2023-05-19T17:05:29.349Z,97866.59
2023-05-19T17:07:56.854Z,97861.31
2023-05-19T17:10:24.421Z,97869.94
2023-05-19T17:12:51.931Z,97867.25
2023-05-19T17:15:19.724Z,97862.66
2023-05-19T17:17:47.332Z,97868.25
2023-05-19T17:20:14.953Z,97869.13
2023-05-19T17:22:42.570Z,97866.03
2023-05-19T17:25:10.312Z,97857.94
2023-05-19T17:27:37.924Z,97857.09
2023-05-19T17:30:07.021Z,97859.81
2023-05-19T17:32:38.629Z,97860.22
2023-05-19T17:35:07.279Z,97855.28
2023-05-19T17:37:34.840Z,97853.22
2023-05-19T17:40:02.423Z,97853.69
2023-05-19T17:42:31.807Z,97847.25
2023-05-19T17:44:59.646Z,97851.88
2023-05-19T17:47:27.320Z,97846.75
2023-05-19T17:49:54.889Z,97849.09
2023-05-19T17:52:22.892Z,97856.81
2023-05-19T17:54:50.969Z,97851.06
2023-05-19T17:57:19.543Z,97855.25
2023-05-19T17:59:47.471Z,97848.16
2023-05-19T18:02:15.934Z,97848.16
2023-05-19T18:04:43.951Z,97852.97
2023-05-19T18:07:13.677Z,97841.75
2023-05-19T18:09:48.414Z,97843.84
2023-05-19T18:12:16.201Z,97853.22
2023-05-19T18:14:43.904Z,97857.59
2023-05-19T18:17:11.412Z,97848.50
2023-05-19T18:19:38.988Z,97851.00
2023-05-19T18:22:07.322Z,97846.06
2023-05-19T18:24:34.899Z,97847.94
2023-05-19T18:27:03.168Z,97840.91
2023-05-19T18:29:30.723Z,97831.78
2023-05-19T18:31:58.284Z,97835.72
2023-05-19T18:34:27.579Z,97824.13
2023-05-19T18:36:55.489Z,97833.69
2023-05-19T18:39:23.218Z,97834.28
2023-05-19T18:41:51.381Z,97836.97
2023-05-19T18:44:18.959Z,97839.50
2023-05-19T18:46:46.651Z,97832.84
2023-05-19T18:49:14.199Z,97834.09
2023-05-19T18:51:42.225Z,97830.16
2023-05-19T18:54:09.979Z,97829.72
2023-05-19T18:56:37.531Z,97830.34
2023-05-19T18:59:05.100Z,97836.97
2023-05-19T19:01:32.747Z,97828.06
2023-05-19T19:04:00.922Z,97832.44
2023-05-19T19:06:30.743Z,97825.38
2023-05-19T19:08:58.300Z,97835.50
2023-05-19T19:11:26.310Z,97825.94
2023-05-19T19:13:55.474Z,97827.38
2023-05-19T19:16:23.255Z,97825.03
2023-05-19T19:18:50.928Z,97832.66
2023-05-19T19:21:19.838Z,97837.59
2023-05-19T19:23:47.906Z,97836.53
2023-05-19T19:26:16.078Z,97835.88
2023-05-19T19:28:43.779Z,97851.34
2023-05-19T19:31:11.416Z,97845.13
2023-05-19T19:33:39.774Z,97852.53
2023-05-19T19:36:07.405Z,97845.28
2023-05-19T19:38:34.952Z,97854.59
2023-05-19T19:41:02.785Z,97852.91
2023-05-19T19:43:31.325Z,97856.22
2023-05-19T19:46:06.906Z,97857.72
2023-05-19T19:48:34.476Z,97857.50
2023-05-19T19:51:02.109Z,97851.88
2023-05-19T19:53:30.765Z,97851.88
2023-05-19T19:56:02.875Z,97843.56
2023-05-19T19:58:30.605Z,97850.84
2023-05-19T20:01:03.537Z,97840.94
2023-05-19T20:03:33.168Z,97843.22
2023-05-19T20:06:01.016Z,97837.41
2023-05-19T20:08:28.535Z,97846.06
2023-05-19T20:10:56.295Z,97843.13
2023-05-19T20:13:24.326Z,97844.81
2023-05-19T20:15:51.899Z,97843.53
2023-05-19T20:18:19.530Z,97833.41
2023-05-19T20:20:47.132Z,97832.97
2023-05-19T20:23:16.101Z,97836.50
2023-05-19T20:25:53.716Z,97837.97
2023-05-19T20:28:30.431Z,97845.41
2023-05-19T20:30:58.004Z,97836.03
2023-05-19T20:33:25.534Z,97836.03
2023-05-19T20:35:53.140Z,97833.53
2023-05-19T20:38:20.674Z,97836.84
2023-05-19T20:40:48.658Z,97831.47
2023-05-19T20:43:16.351Z,97826.34
2023-05-19T20:45:44.583Z,97831.72
2023-05-19T20:48:12.361Z,97826.72
2023-05-19T20:50:40.058Z,97822.19
2023-05-19T20:53:07.703Z,97822.19
2023-05-19T20:55:36.487Z,97816.56
2023-05-19T20:58:04.094Z,97818.88
2023-05-19T21:00:32.049Z,97821.56
2023-05-19T21:02:59.892Z,97817.38
2023-05-19T21:05:27.530Z,97822.38
2023-05-19T21:07:55.075Z,97823.63
2023-05-19T21:10:22.714Z,97819.63
2023-05-19T21:12:50.409Z,97817.16
2023-05-19T21:15:18.146Z,97816.56
2023-05-19T21:17:46.553Z,97815.56
2023-05-19T21:20:14.181Z,97811.63
2023-05-19T21:22:41.709Z,97810.81
2023-05-19T21:25:09.457Z,97809.13
2023-05-19T21:27:37.036Z,97803.75
2023-05-19T21:30:05.139Z,97806.41
2023-05-19T21:32:32.902Z,97811.97
2023-05-19T21:35:01.203Z,97807.44
2023-05-19T21:37:28.738Z,97806.59
2023-05-19T21:39:56.286Z,97812.81
2023-05-19T21:42:23.828Z,97808.25
2023-05-19T21:44:51.409Z,97804.09
2023-05-19T21:47:18.939Z,97805.94
2023-05-19T21:49:46.460Z,97805.56
2023-05-19T21:52:14.033Z,97799.38
2023-05-19T21:54:41.606Z,97793.16
2023-05-19T21:57:11.037Z,97790.66
2023-05-19T21:59:38.888Z,97790.28
2023-05-19T22:02:06.618Z,97790.69
2023-05-19T22:04:34.309Z,97798.19
2023-05-19T22:07:01.905Z,97787.25
2023-05-19T22:09:29.627Z,97793.25
2023-05-19T22:11:57.179Z,97793.44
2023-05-19T22:14:25.013Z,97787.81
2023-05-19T22:16:52.726Z,97784.91
2023-05-19T22:19:20.490Z,97786.97
2023-05-19T22:21:49.207Z,97774.97
2023-05-19T22:24:18.477Z,97782.63
2023-05-19T22:26:46.912Z,97778.47
2023-05-19T22:29:18.314Z,97782.22
2023-05-19T22:31:46.314Z,97778.03
2023-05-19T22:34:15.383Z,97778.81
2023-05-19T22:36:45.825Z,97774.66
2023-05-19T22:39:13.465Z,97770.31
2023-05-19T22:41:41.906Z,97773.41
2023-05-19T22:44:11.255Z,97772.53
2023-05-19T22:46:38.853Z,97772.09
2023-05-19T22:49:06.460Z,97771.44
2023-05-19T22:51:33.987Z,97770.38
2023-05-19T22:54:01.671Z,97767.25
2023-05-19T22:56:29.204Z,97777.16
2023-05-19T22:58:56.781Z,97781.09
2023-05-19T23:01:24.448Z,97772.97
2023-05-19T23:03:52.165Z,97773.56
2023-05-19T23:06:19.762Z,97772.09
2023-05-19T23:08:47.371Z,97782.19
2023-05-19T23:11:14.984Z,97777.22
2023-05-19T23:13:42.580Z,97775.94
2023-05-19T23:16:10.204Z,97773.00
2023-05-19T23:18:37.813Z,97777.72
2023-05-19T23:21:05.387Z,97776.09
2023-05-19T23:23:32.887Z,97769.41
2023-05-19T23:26:00.444Z,97769.81
2023-05-19T23:28:28.005Z,97768.34
2023-05-19T23:30:56.154Z,97770.59
2023-05-19T23:33:23.722Z,97759.22
2023-05-19T23:35:51.259Z,97762.91
2023-05-19T23:38:18.806Z,97760.41
2023-05-19T23:40:46.345Z,97755.63
2023-05-19T23:43:13.968Z,97758.69
2023-05-19T23:45:42.163Z,97756.00
2023-05-19T23:48:09.732Z,97755.19
2023-05-19T23:50:37.293Z,97754.19
2023-05-19T23:53:05.028Z,97752.13
2023-05-19T23:55:32.779Z,97744.06
2023-05-19T23:58:00.567Z,97748.41
